Time;durP1;ratioP1;P1;durP2;ratioP2;P2;SDS_P1;SDS_P2;PMS_P1;PMS_P2;Temp;Humidity;BMP_temperature;BMP_pressure;BME280_temperature;BME280_humidity;BME280_pressure;Samples;Min_cycle;Max_cycle;Signal;HPM_P1;HPM_P2
2021/07/16 00:02:32;;;;;;;3.35;2.35;;;17.30;99.90;;;;;;6226862;28;20125;-78
2021/07/16 00:05:34;;;;;;;2.58;2.20;;;17.20;99.90;;;;;;6226204;28;20621;-76
2021/07/16 00:08:36;;;;;;;2.78;1.90;;;17.10;99.90;;;;;;6225363;28;20049;-77
2021/07/16 00:11:37;;;;;;;4.70;2.25;;;17.10;99.90;;;;;;6225860;28;20046;-78
2021/07/16 00:14:41;;;;;;;2.67;2.33;;;17.10;99.90;;;;;;6227141;28;20065;-77
2021/07/16 00:17:43;;;;;;;5.00;2.60;;;17.00;99.90;;;;;;6225940;28;20046;-78
2021/07/16 00:20:45;;;;;;;4.60;2.13;;;17.00;99.90;;;;;;6225323;28;20053;-78
2021/07/16 00:23:47;;;;;;;3.97;2.13;;;16.90;99.90;;;;;;6225264;28;20068;-78
2021/07/16 00:26:50;;;;;;;3.83;2.15;;;16.90;99.90;;;;;;6225030;28;20065;-77
2021/07/16 00:29:53;;;;;;;2.50;2.25;;;16.80;99.90;;;;;;6226613;28;20494;-78
2021/07/16 00:32:55;;;;;;;1.80;1.70;;;16.70;99.90;;;;;;6225323;28;20456;-78
2021/07/16 00:35:56;;;;;;;4.68;2.42;;;16.70;99.90;;;;;;6225042;28;20100;-78
2021/07/16 00:38:58;;;;;;;3.13;2.10;;;16.60;99.90;;;;;;6225528;28;20201;-78
2021/07/16 00:42:00;;;;;;;6.03;2.28;;;16.50;99.90;;;;;;6226097;28;20081;-78
2021/07/16 00:45:05;;;;;;;2.13;1.92;;;16.50;99.90;;;;;;6225847;28;20195;-77
2021/07/16 00:48:07;;;;;;;2.97;1.83;;;16.50;99.90;;;;;;6224675;28;20052;-78
2021/07/16 00:51:09;;;;;;;3.72;1.65;;;16.40;99.90;;;;;;6224723;28;20515;-78
2021/07/16 00:54:11;;;;;;;2.10;1.92;;;16.40;99.90;;;;;;6225229;28;20140;-78
2021/07/16 00:57:13;;;;;;;4.57;2.20;;;16.30;99.90;;;;;;6225869;28;20115;-78
2021/07/16 01:00:17;;;;;;;5.93;2.03;;;16.30;99.90;;;;;;6224881;28;21424;-78
2021/07/16 01:03:19;;;;;;;4.90;2.92;;;16.30;99.90;;;;;;6225462;28;20177;-78
2021/07/16 01:06:21;;;;;;;5.15;2.22;;;16.30;99.90;;;;;;6224587;28;20053;-77
2021/07/16 01:09:23;;;;;;;6.57;2.83;;;16.30;99.90;;;;;;6229385;28;20068;-77
2021/07/16 01:12:25;;;;;;;3.10;1.35;;;16.20;99.90;;;;;;6228812;28;20565;-78
2021/07/16 01:15:32;;;;;;;5.55;2.20;;;16.20;99.90;;;;;;6230520;28;20546;-78
2021/07/16 01:18:34;;;;;;;4.03;2.13;;;16.10;99.90;;;;;;6230226;28;20046;-78
2021/07/16 01:21:38;;;;;;;1.73;1.63;;;16.10;99.90;;;;;;6230407;28;20104;-78
2021/07/16 01:24:42;;;;;;;3.40;2.15;;;16.00;99.90;;;;;;6230240;28;20046;-78
2021/07/16 01:27:47;;;;;;;3.08;1.95;;;16.00;99.90;;;;;;6230146;28;20061;-78
2021/07/16 01:30:51;;;;;;;7.45;1.98;;;16.10;99.90;;;;;;6231480;28;20038;-79
2021/07/16 01:33:53;;;;;;;9.82;2.28;;;16.10;99.90;;;;;;6247835;28;20124;-76
2021/07/16 01:36:55;;;;;;;3.58;1.95;;;16.20;99.90;;;;;;6244612;28;20423;-78
2021/07/16 01:39:58;;;;;;;4.25;2.55;;;16.20;99.90;;;;;;6229950;28;20078;-78
2021/07/16 01:43:00;;;;;;;4.68;2.67;;;16.20;99.90;;;;;;6229353;28;20124;-78
2021/07/16 01:46:02;;;;;;;6.60;2.72;;;16.20;99.90;;;;;;6229218;28;20097;-78
2021/07/16 01:49:05;;;;;;;2.10;1.70;;;16.20;99.90;;;;;;6230484;28;20046;-76
2021/07/16 01:52:07;;;;;;;2.60;1.70;;;16.20;99.90;;;;;;6229892;28;20177;-78
2021/07/16 01:55:12;;;;;;;7.45;3.17;;;16.20;99.90;;;;;;6230782;28;20132;-78
2021/07/16 01:58:15;;;;;;;1.80;1.50;;;16.20;99.90;;;;;;6229340;28;20046;-78
2021/07/16 02:01:17;;;;;;;3.50;1.88;;;16.20;99.90;;;;;;6230908;28;20519;-77
2021/07/16 02:04:18;;;;;;;3.88;1.70;;;16.30;99.90;;;;;;6229943;28;20251;-79
2021/07/16 02:07:20;;;;;;;9.50;3.58;;;16.30;99.90;;;;;;6229037;28;20050;-79
2021/07/16 02:10:25;;;;;;;2.15;1.98;;;16.40;99.90;;;;;;6229445;28;20054;-79
2021/07/16 02:13:27;;;;;;;4.85;1.88;;;16.50;99.90;;;;;;6230491;28;20140;-77
2021/07/16 02:16:29;;;;;;;4.47;2.30;;;16.50;99.90;;;;;;6229869;28;20184;-78
2021/07/16 02:19:35;;;;;;;2.17;1.98;;;16.60;99.90;;;;;;6228489;28;20688;-77
2021/07/16 02:22:37;;;;;;;5.60;2.17;;;16.60;99.90;;;;;;6228001;28;20440;-79
2021/07/16 02:25:41;;;;;;;2.83;2.03;;;16.70;99.90;;;;;;6229188;28;20488;-78
2021/07/16 02:28:43;;;;;;;7.50;2.35;;;16.70;99.90;;;;;;6229408;28;20096;-77
2021/07/16 02:31:49;;;;;;;4.97;1.75;;;16.80;99.90;;;;;;6229878;28;20081;-78
2021/07/16 02:34:50;;;;;;;5.93;1.90;;;16.80;99.90;;;;;;6229442;28;20050;-78
2021/07/16 02:37:52;;;;;;;4.85;4.35;;;16.80;99.90;;;;;;6229492;28;20508;-78
2021/07/16 02:40:56;;;;;;;1.73;1.52;;;16.80;99.90;;;;;;6228461;28;20132;-78
2021/07/16 02:43:58;;;;;;;3.05;2.60;;;16.80;99.90;;;;;;6229094;28;20110;-78
2021/07/16 02:47:00;;;;;;;4.53;2.00;;;16.80;99.90;;;;;;6228488;28;20431;-79
2021/07/16 02:50:02;;;;;;;7.60;2.20;;;16.80;99.90;;;;;;6229308;28;20119;-78
2021/07/16 02:53:05;;;;;;;3.08;1.52;;;16.70;99.90;;;;;;6229218;28;20519;-77
2021/07/16 02:56:08;;;;;;;4.28;2.45;;;16.70;99.90;;;;;;6228574;28;20527;-77
2021/07/16 02:59:10;;;;;;;2.50;1.98;;;16.70;99.90;;;;;;6229449;28;20597;-78
2021/07/16 03:02:11;;;;;;;4.45;2.03;;;16.60;99.90;;;;;;6230056;28;20054;-78
2021/07/16 03:05:16;;;;;;;6.20;2.28;;;16.60;99.90;;;;;;6229174;28;20277;-78
2021/07/16 03:08:18;;;;;;;2.75;2.00;;;16.60;99.90;;;;;;6229158;28;20133;-78
2021/07/16 03:11:21;;;;;;;5.78;3.63;;;16.60;99.90;;;;;;6228063;28;20140;-79
2021/07/16 03:14:23;;;;;;;7.40;2.85;;;16.70;99.90;;;;;;6229569;28;20135;-78
2021/07/16 03:17:25;;;;;;;6.75;3.42;;;16.80;99.90;;;;;;6229745;28;20192;-78
2021/07/16 03:20:29;;;;;;;5.00;2.53;;;16.90;99.90;;;;;;6228497;28;20504;-78
2021/07/16 03:23:31;;;;;;;2.88;2.50;;;17.00;99.90;;;;;;6228129;28;20092;-79
2021/07/16 03:26:36;;;;;;;6.15;2.85;;;17.10;99.90;;;;;;6228094;28;20126;-78
2021/07/16 03:29:38;;;;;;;4.93;2.80;;;17.10;99.90;;;;;;6228102;28;20053;-78
2021/07/16 03:32:41;;;;;;;4.70;2.38;;;17.20;99.90;;;;;;6225404;28;20052;-77
2021/07/16 03:35:42;;;;;;;3.22;2.92;;;17.30;99.90;;;;;;6224275;28;20105;-76
2021/07/16 03:38:46;;;;;;;2.58;2.38;;;17.30;99.90;;;;;;6224544;28;20618;-77
2021/07/16 03:41:50;;;;;;;2.38;2.10;;;17.40;99.90;;;;;;6224043;28;20072;-76
2021/07/16 03:44:52;;;;;;;8.18;2.22;;;17.40;99.90;;;;;;6223404;28;20531;-77
2021/07/16 03:47:54;;;;;;;2.90;1.85;;;17.40;99.90;;;;;;6223703;28;20087;-77
2021/07/16 03:50:56;;;;;;;6.25;2.30;;;17.50;99.90;;;;;;6223506;28;20137;-78
2021/07/16 03:53:58;;;;;;;3.97;2.30;;;17.50;99.90;;;;;;6223796;28;20452;-77
2021/07/16 03:57:01;;;;;;;2.75;2.42;;;17.50;99.90;;;;;;6224641;28;20262;-78
2021/07/16 04:00:06;;;;;;;3.72;2.70;;;17.50;99.90;;;;;;6224984;28;20135;-76
2021/07/16 04:03:08;;;;;;;2.42;2.22;;;17.60;99.90;;;;;;6223934;28;20056;-77
2021/07/16 04:06:10;;;;;;;2.25;2.05;;;17.60;99.90;;;;;;6224178;28;20050;-77
2021/07/16 04:09:26;;;;;;;4.18;2.15;;;17.60;99.90;;;;;;6224639;28;20068;-77
2021/07/16 04:12:30;;;;;;;5.07;2.92;;;17.70;99.90;;;;;;6226839;28;20050;-76
2021/07/16 04:15:31;;;;;;;7.80;5.03;;;17.80;99.90;;;;;;6224979;28;20056;-78
2021/07/16 04:18:33;;;;;;;5.00;4.15;;;17.80;99.90;;;;;;6224250;28;20197;-78
2021/07/16 04:21:35;;;;;;;7.40;4.13;;;17.90;99.90;;;;;;6225266;28;20137;-76
2021/07/16 04:24:38;;;;;;;6.70;4.90;;;18.00;99.90;;;;;;6224805;28;20124;-78
2021/07/16 04:27:42;;;;;;;8.52;4.43;;;18.00;99.90;;;;;;6224543;28;20116;-77
2021/07/16 04:30:43;;;;;;;8.48;4.80;;;18.10;99.90;;;;;;6224715;28;20112;-78
2021/07/16 04:33:45;;;;;;;11.05;5.75;;;18.10;99.90;;;;;;6225220;28;20133;-78
2021/07/16 04:36:47;;;;;;;8.35;7.10;;;18.20;99.90;;;;;;6224819;28;20124;-78
2021/07/16 04:39:49;;;;;;;6.95;6.25;;;18.30;99.90;;;;;;6223601;28;20044;-77
2021/07/16 04:42:54;;;;;;;10.52;6.65;;;18.30;99.90;;;;;;6226867;28;20188;-76
2021/07/16 04:45:55;;;;;;;6.53;5.75;;;18.40;99.90;;;;;;6228927;28;20069;-77
2021/07/16 04:48:57;;;;;;;10.77;6.25;;;18.50;99.90;;;;;;6227262;28;20056;-77
2021/07/16 04:52:00;;;;;;;7.25;5.45;;;18.60;99.90;;;;;;6227870;28;20082;-76
2021/07/16 04:55:02;;;;;;;7.90;7.10;;;18.70;99.90;;;;;;6227802;28;20046;-77
2021/07/16 04:58:05;;;;;;;9.65;6.35;;;18.90;99.90;;;;;;6227323;28;20140;-76
2021/07/16 05:01:07;;;;;;;10.10;8.40;;;19.10;99.90;;;;;;6228434;28;20053;-78
2021/07/16 05:04:09;;;;;;;13.10;8.48;;;19.30;99.90;;;;;;6227696;28;20143;-76
2021/07/16 05:07:11;;;;;;;10.48;9.25;;;19.50;99.90;;;;;;6228242;28;20099;-76
2021/07/16 05:10:13;;;;;;;8.90;7.15;;;19.60;99.90;;;;;;6238473;28;20077;-76
2021/07/16 05:13:16;;;;;;;10.35;6.90;;;19.70;99.90;;;;;;6236062;28;20057;-77
2021/07/16 05:16:18;;;;;;;7.60;6.90;;;19.80;99.90;;;;;;6227168;28;20050;-78
2021/07/16 05:19:20;;;;;;;8.80;5.85;;;19.90;99.90;;;;;;6226731;28;20042;-77
2021/07/16 05:22:22;;;;;;;10.07;7.40;;;20.10;99.90;;;;;;6226986;28;20180;-77
2021/07/16 05:25:24;;;;;;;17.85;7.88;;;20.20;99.90;;;;;;6228065;28;20511;-77
2021/07/16 05:28:27;;;;;;;7.20;6.30;;;20.40;99.90;;;;;;6226368;28;20080;-77
2021/07/16 05:31:29;;;;;;;10.82;6.90;;;20.50;99.90;;;;;;6226592;28;20127;-77
2021/07/16 05:34:31;;;;;;;8.98;6.95;;;20.80;99.90;;;;;;6226231;28;20042;-78
2021/07/16 05:37:33;;;;;;;8.00;7.13;;;20.90;99.90;;;;;;6226825;28;20050;-76
2021/07/16 05:40:35;;;;;;;10.68;7.85;;;20.90;99.90;;;;;;6226252;28;20096;-77
2021/07/16 05:43:38;;;;;;;12.63;7.88;;;21.00;99.90;;;;;;6226348;28;20068;-77
2021/07/16 05:46:40;;;;;;;11.40;8.30;;;21.20;99.90;;;;;;6225853;28;20495;-77
2021/07/16 05:49:41;;;;;;;8.00;6.72;;;21.30;99.90;;;;;;6227419;28;20061;-77
2021/07/16 05:52:44;;;;;;;9.00;8.00;;;21.40;99.90;;;;;;6225382;28;20065;-78
2021/07/16 05:55:46;;;;;;;8.73;7.70;;;21.60;99.50;;;;;;6226898;28;20176;-77
2021/07/16 05:58:49;;;;;;;12.90;9.18;;;21.70;98.30;;;;;;6226685;28;20093;-77
2021/07/16 06:01:51;;;;;;;9.15;7.63;;;21.50;98.00;;;;;;6231312;28;20061;-77
2021/07/16 06:04:52;;;;;;;10.93;9.35;;;21.40;98.30;;;;;;6227288;28;20501;-77
2021/07/16 06:07:54;;;;;;;11.27;10.07;;;21.40;98.30;;;;;;6225154;28;20041;-77
2021/07/16 06:10:56;;;;;;;11.13;8.50;;;21.60;97.70;;;;;;6225297;28;20091;-76
2021/07/16 06:14:00;;;;;;;12.07;8.63;;;21.60;97.40;;;;;;6225890;28;20058;-77
2021/07/16 06:17:02;;;;;;;13.25;10.20;;;21.60;97.30;;;;;;6224836;28;20050;-77
2021/07/16 06:20:06;;;;;;;11.13;9.95;;;21.60;97.10;;;;;;6225036;28;20085;-77
2021/07/16 06:23:07;;;;;;;9.98;8.80;;;21.60;97.10;;;;;;6225416;28;20057;-77
2021/07/16 06:26:09;;;;;;;10.15;9.07;;;21.50;97.30;;;;;;6225107;28;20061;-78
2021/07/16 06:29:12;;;;;;;12.73;8.77;;;21.50;97.60;;;;;;6225623;28;20192;-76
2021/07/16 06:32:14;;;;;;;11.50;8.80;;;21.60;97.50;;;;;;6224275;28;20132;-77
2021/07/16 06:35:16;;;;;;;15.30;9.93;;;21.60;97.30;;;;;;6224834;28;20139;-77
2021/07/16 06:38:18;;;;;;;11.73;10.60;;;21.70;97.20;;;;;;6224508;28;20045;-77
2021/07/16 06:41:20;;;;;;;12.63;10.88;;;21.90;96.30;;;;;;6224997;28;20042;-77
2021/07/16 06:44:23;;;;;;;11.43;9.80;;;22.00;95.70;;;;;;6225157;28;20046;-77
2021/07/16 06:47:25;;;;;;;10.85;9.75;;;22.00;95.20;;;;;;6224746;28;20519;-77
2021/07/16 06:50:26;;;;;;;14.93;9.25;;;22.10;94.90;;;;;;6224654;28;20041;-77
2021/07/16 06:53:29;;;;;;;11.13;9.35;;;22.20;94.90;;;;;;6224429;28;20050;-76
2021/07/16 06:56:31;;;;;;;11.80;8.48;;;22.30;94.10;;;;;;6223040;28;20133;-76
2021/07/16 06:59:34;;;;;;;11.02;9.48;;;22.60;93.50;;;;;;6219119;28;20045;-76
2021/07/16 07:02:36;;;;;;;9.77;8.38;;;23.10;91.30;;;;;;6223081;28;20125;-75
2021/07/16 07:05:38;;;;;;;11.10;8.55;;;23.40;89.90;;;;;;6223050;28;20107;-76
2021/07/16 07:08:40;;;;;;;8.90;7.03;;;23.80;86.30;;;;;;6223157;28;20054;-76
2021/07/16 07:11:42;;;;;;;10.68;7.32;;;24.00;83.00;;;;;;6222549;28;20176;-76
2021/07/16 07:14:47;;;;;;;8.93;6.75;;;24.20;81.10;;;;;;6223452;28;20180;-76
2021/07/16 07:17:49;;;;;;;7.60;5.32;;;24.50;78.10;;;;;;6223017;28;20656;-76
2021/07/16 07:20:51;;;;;;;8.52;6.75;;;24.50;76.40;;;;;;6222903;28;20121;-76
2021/07/16 07:23:53;;;;;;;7.30;6.25;;;24.30;75.60;;;;;;6222826;28;20503;-76
2021/07/16 07:26:57;;;;;;;7.68;6.97;;;24.10;76.80;;;;;;6222618;28;20095;-76
2021/07/16 07:30:00;;;;;;;6.55;5.95;;;24.10;76.70;;;;;;6222986;28;20046;-75
2021/07/16 07:33:04;;;;;;;6.72;6.13;;;24.00;77.00;;;;;;6222294;28;20124;-76
2021/07/16 07:36:06;;;;;;;7.15;6.30;;;23.90;77.10;;;;;;6222526;28;20128;-76
2021/07/16 07:39:08;;;;;;;6.35;5.10;;;24.00;76.30;;;;;;6222716;28;20046;-76
2021/07/16 07:42:15;;;;;;;6.60;5.82;;;24.30;76.10;;;;;;6222540;28;20057;-76
2021/07/16 07:45:18;;;;;;;6.67;4.57;;;24.80;74.10;;;;;;6223289;28;20057;-75
2021/07/16 07:48:20;;;;;;;6.30;5.22;;;25.00;72.50;;;;;;6222058;28;20073;-76
2021/07/16 07:51:22;;;;;;;9.25;5.43;;;25.10;71.10;;;;;;6222289;28;20136;-76
2021/07/16 07:54:23;;;;;;;8.18;5.80;;;25.10;70.60;;;;;;6222225;28;20191;-76
2021/07/16 07:57:25;;;;;;;6.43;5.13;;;25.00;71.10;;;;;;6222485;28;20050;-76
2021/07/16 08:00:29;;;;;;;4.35;3.70;;;25.10;70.40;;;;;;6222114;28;20037;-75
2021/07/16 08:03:30;;;;;;;5.35;4.07;;;25.20;69.10;;;;;;6222306;28;20527;-76
2021/07/16 08:06:32;;;;;;;4.22;3.20;;;25.60;68.80;;;;;;6221764;28;20046;-76
2021/07/16 08:09:34;;;;;;;4.18;3.13;;;25.90;67.40;;;;;;6222398;28;20107;-75
2021/07/16 08:12:37;;;;;;;4.15;3.75;;;26.20;66.60;;;;;;6222018;28;20049;-76
2021/07/16 08:15:41;;;;;;;6.43;3.78;;;26.30;65.00;;;;;;6221164;28;20643;-76
2021/07/16 08:18:42;;;;;;;3.80;2.90;;;26.20;64.50;;;;;;6221791;28;20211;-76
2021/07/16 08:21:46;;;;;;;3.50;3.20;;;26.20;64.90;;;;;;6222088;28;20124;-75
2021/07/16 08:24:48;;;;;;;5.10;3.33;;;26.70;64.30;;;;;;6221815;28;20046;-75
2021/07/16 08:27:50;;;;;;;7.80;3.70;;;27.00;64.00;;;;;;6221584;28;20058;-76
2021/07/16 08:30:53;;;;;;;7.70;3.55;;;27.50;61.70;;;;;;6221544;28;20050;-76
2021/07/16 08:33:55;;;;;;;3.45;3.15;;;27.60;60.70;;;;;;6222207;28;20050;-76
2021/07/16 08:36:58;;;;;;;3.65;3.10;;;27.50;60.70;;;;;;6221425;28;20085;-75
2021/07/16 08:40:00;;;;;;;3.67;2.38;;;27.70;61.10;;;;;;6221529;28;20068;-76
2021/07/16 08:43:02;;;;;;;3.03;2.80;;;28.20;60.10;;;;;;6229045;28;20077;-75
2021/07/16 08:46:06;;;;;;;4.70;2.88;;;28.40;58.90;;;;;;6226584;28;20053;-76
2021/07/16 08:49:07;;;;;;;3.83;2.92;;;28.00;58.80;;;;;;6222193;28;20046;-75
2021/07/16 08:52:11;;;;;;;8.88;3.20;;;27.60;59.70;;;;;;6221643;28;20129;-76
2021/07/16 08:55:14;;;;;;;3.90;2.50;;;27.20;60.30;;;;;;6221637;28;20053;-76
2021/07/16 08:58:16;;;;;;;4.68;3.03;;;27.10;60.80;;;;;;6221501;28;20074;-75
2021/07/16 09:01:19;;;;;;;3.95;3.05;;;27.30;61.00;;;;;;6221928;28;20095;-76
2021/07/16 09:04:24;;;;;;;2.60;2.40;;;27.70;60.10;;;;;;6221380;28;20172;-76
2021/07/16 09:07:26;;;;;;;3.78;2.53;;;28.30;59.40;;;;;;6221364;28;20050;-76
2021/07/16 09:10:28;;;;;;;5.55;3.22;;;28.70;58.00;;;;;;6221179;28;20042;-74
2021/07/16 09:13:32;;;;;;;4.47;2.65;;;28.80;57.70;;;;;;6222232;28;20054;-76
2021/07/16 09:16:36;;;;;;;6.13;2.85;;;28.90;56.70;;;;;;6220994;28;20635;-75
2021/07/16 09:19:39;;;;;;;2.92;2.05;;;28.70;56.70;;;;;;6221500;28;20100;-76
2021/07/16 09:22:41;;;;;;;6.53;2.10;;;29.00;56.90;;;;;;6221007;28;20095;-76
2021/07/16 09:25:44;;;;;;;2.13;1.92;;;29.20;56.10;;;;;;6221135;28;20593;-76
2021/07/16 09:28:48;;;;;;;3.10;2.47;;;29.70;55.40;;;;;;6223018;28;20041;-76
2021/07/16 09:32:03;;;;;;;3.83;2.65;;;30.30;53.60;;;;;;6225192;28;20045;-75
2021/07/16 09:35:05;;;;;;;3.15;2.22;;;30.70;52.80;;;;;;6225251;28;20053;-75
2021/07/16 09:38:09;;;;;;;4.95;2.50;;;30.40;52.00;;;;;;6225451;28;20131;-75
2021/07/16 09:41:10;;;;;;;6.88;3.38;;;30.50;52.40;;;;;;6225788;28;20042;-77
2021/07/16 09:44:12;;;;;;;2.58;2.30;;;30.80;51.10;;;;;;6225182;28;20683;-76
2021/07/16 09:47:17;;;;;;;21.38;3.25;;;30.60;51.30;;;;;;6224945;28;20084;-76
2021/07/16 09:50:23;;;;;;;3.08;2.30;;;30.20;51.80;;;;;;6224639;28;20535;-76
2021/07/16 09:53:27;;;;;;;5.72;2.40;;;29.80;52.30;;;;;;6225700;28;20192;-75
2021/07/16 09:56:31;;;;;;;2.67;2.42;;;29.40;53.20;;;;;;6224445;28;20073;-75
2021/07/16 09:59:33;;;;;;;3.72;1.88;;;29.20;53.40;;;;;;6224668;28;20216;-76
2021/07/16 10:02:36;;;;;;;3.03;2.65;;;29.50;53.50;;;;;;6224653;28;20042;-75
2021/07/16 10:05:39;;;;;;;5.45;3.13;;;29.70;53.30;;;;;;6224656;28;20459;-75
2021/07/16 10:08:42;;;;;;;1.88;1.77;;;29.90;53.80;;;;;;6224342;28;20396;-75
2021/07/16 10:11:48;;;;;;;3.33;2.22;;;30.30;52.80;;;;;;6224008;28;20053;-76
2021/07/16 10:14:50;;;;;;;2.38;2.17;;;30.70;51.20;;;;;;6224707;28;20057;-75
2021/07/16 10:17:54;;;;;;;4.75;1.80;;;30.60;50.60;;;;;;6224405;28;20085;-76
2021/07/16 10:20:57;;;;;;;8.65;2.17;;;30.40;51.40;;;;;;6224244;28;20052;-76
2021/07/16 10:24:00;;;;;;;5.18;2.95;;;30.40;51.30;;;;;;6224488;28;20046;-76
2021/07/16 10:27:02;;;;;;;4.25;1.83;;;30.60;51.00;;;;;;6223753;28;20476;-75
2021/07/16 10:30:09;;;;;;;2.35;2.15;;;30.80;51.10;;;;;;6223799;28;20049;-76
2021/07/16 10:33:12;;;;;;;2.10;1.90;;;31.10;49.60;;;;;;6224219;28;20542;-75
2021/07/16 10:36:14;;;;;;;2.28;2.00;;;31.20;50.30;;;;;;6223643;28;20066;-76
2021/07/16 10:39:21;;;;;;;7.80;1.90;;;30.90;49.60;;;;;;6223037;28;20133;-76
2021/07/16 10:42:43;;;;;;;2.97;2.42;;;30.70;49.90;;;;;;6224083;28;20136;-75
2021/07/16 10:45:45;;;;;;;2.30;2.10;;;30.80;50.20;;;;;;6224123;28;20566;-76
2021/07/16 10:48:49;;;;;;;1.70;1.60;;;30.70;50.00;;;;;;6223625;28;20046;-76
2021/07/16 10:52:03;;;;;;;2.70;2.00;;;30.50;49.60;;;;;;6222872;28;20180;-75
2021/07/16 10:55:06;;;;;;;5.28;2.05;;;30.20;50.20;;;;;;6223571;28;20042;-75
2021/07/16 10:58:18;;;;;;;3.17;1.70;;;30.20;50.90;;;;;;6222954;28;20500;-75
2021/07/16 11:01:35;;;;;;;3.00;1.65;;;29.90;50.00;;;;;;6223935;28;20141;-76
2021/07/16 11:04:38;;;;;;;1.70;1.60;;;29.80;51.00;;;;;;6223082;28;20619;-75
2021/07/16 11:07:40;;;;;;;2.33;1.73;;;29.80;51.60;;;;;;6222971;28;20049;-76
2021/07/16 11:10:45;;;;;;;2.08;1.85;;;29.90;50.80;;;;;;6222850;28;20189;-76
2021/07/16 11:13:48;;;;;;;3.53;2.65;;;30.10;52.60;;;;;;6223493;28;20050;-75
2021/07/16 11:16:50;;;;;;;1.52;1.38;;;30.10;50.00;;;;;;6222518;28;20476;-76
2021/07/16 11:23:21;;;;;;;1.65;1.55;;;30.00;48.00;;;;;;6321818;27;20393;-75
2021/07/16 11:26:23;;;;;;;2.92;2.17;;;29.60;49.80;;;;;;6292402;28;20170;-75
2021/07/16 11:29:25;;;;;;;1.63;1.52;;;29.40;50.00;;;;;;6292810;28;20469;-76
2021/07/16 11:32:28;;;;;;;2.28;1.27;;;29.50;50.60;;;;;;6292297;28;20076;-75
2021/07/16 11:35:31;;;;;;;2.05;1.85;;;29.70;50.00;;;;;;6292520;28;20049;-75
2021/07/16 11:38:34;;;;;;;3.13;2.60;;;29.80;49.40;;;;;;6292105;28;20170;-75
2021/07/16 11:41:36;;;;;;;2.42;2.22;;;29.80;50.30;;;;;;6292932;28;20122;-76
2021/07/16 11:44:41;;;;;;;3.05;1.58;;;29.80;51.00;;;;;;6292333;28;20426;-76
2021/07/16 11:47:42;;;;;;;2.35;1.88;;;29.90;51.30;;;;;;6292361;28;20091;-75
2021/07/16 11:50:46;;;;;;;2.78;2.53;;;29.80;51.10;;;;;;6291962;28;20071;-76
2021/07/16 11:53:49;;;;;;;2.42;1.80;;;29.60;51.20;;;;;;6292724;28;20143;-76
2021/07/16 11:56:57;;;;;;;1.73;1.48;;;29.60;51.50;;;;;;6291608;28;20071;-75
2021/07/16 11:59:59;;;;;;;2.08;1.45;;;29.60;51.40;;;;;;6291635;28;20055;-75
2021/07/16 12:03:03;;;;;;;3.08;1.30;;;29.90;51.90;;;;;;6291670;28;20051;-76
2021/07/16 12:06:06;;;;;;;3.80;1.50;;;30.30;50.90;;;;;;6291065;28;20417;-76
2021/07/16 12:09:09;;;;;;;3.78;1.90;;;30.40;50.10;;;;;;6291921;28;20139;-76
2021/07/16 12:12:13;;;;;;;3.80;1.52;;;30.20;49.90;;;;;;6291180;28;20129;-76
2021/07/16 12:15:19;;;;;;;3.58;2.90;;;30.30;51.20;;;;;;6291871;28;20049;-76
2021/07/16 12:18:21;;;;;;;3.92;2.05;;;30.60;50.20;;;;;;6291961;28;20150;-76
2021/07/16 12:21:23;;;;;;;3.25;2.08;;;30.60;50.10;;;;;;6291949;28;20049;-76
2021/07/16 12:24:26;;;;;;;1.38;1.27;;;30.40;51.50;;;;;;6291472;28;20131;-75
2021/07/16 12:27:28;;;;;;;2.00;1.80;;;30.20;51.00;;;;;;6290848;28;20136;-75
2021/07/16 12:30:30;;;;;;;2.65;1.52;;;30.20;49.60;;;;;;6290736;28;20628;-75
2021/07/16 12:33:33;;;;;;;1.40;1.30;;;30.10;50.20;;;;;;6281500;28;20063;-76
2021/07/16 12:36:35;;;;;;;4.75;1.55;;;30.10;50.10;;;;;;6274217;28;20071;-76
2021/07/16 12:39:40;;;;;;;2.85;1.20;;;30.10;49.00;;;;;;6274148;28;20049;-76
2021/07/16 12:42:42;;;;;;;3.78;0.80;;;30.10;47.80;;;;;;6274342;28;20048;-75
2021/07/16 12:45:46;;;;;;;2.40;1.00;;;30.10;46.80;;;;;;6274426;28;20131;-76
2021/07/16 12:48:48;;;;;;;1.90;1.42;;;30.30;46.80;;;;;;6274327;28;20049;-75
2021/07/16 12:51:50;;;;;;;2.13;1.00;;;30.30;46.20;;;;;;6274229;28;20522;-76
2021/07/16 12:55:15;;;;;;;1.48;1.23;;;30.40;46.60;;;;;;6274165;28;20068;-76
2021/07/16 12:58:17;;;;;;;1.45;1.10;;;30.30;47.50;;;;;;6274146;28;20044;-75
2021/07/16 13:01:27;;;;;;;1.63;1.33;;;30.10;48.40;;;;;;6274335;28;20095;-76
2021/07/16 13:04:31;;;;;;;2.15;1.25;;;29.90;47.20;;;;;;6273847;28;20051;-76
2021/07/16 13:07:33;;;;;;;2.20;1.40;;;29.70;48.00;;;;;;6273862;28;20052;-75
2021/07/16 13:10:46;;;;;;;2.72;1.15;;;29.50;48.60;;;;;;6273695;28;20073;-76
2021/07/16 13:13:48;;;;;;;1.40;1.30;;;29.40;48.10;;;;;;6274756;28;20059;-76
2021/07/16 13:16:50;;;;;;;3.05;1.48;;;29.30;49.30;;;;;;6273310;28;20422;-76
2021/07/16 13:19:59;;;;;;;6.38;1.00;;;29.30;49.50;;;;;;6273724;28;20045;-75
2021/07/16 13:23:01;;;;;;;2.72;0.88;;;29.40;49.60;;;;;;6273265;28;20187;-76
2021/07/16 13:26:05;;;;;;;2.08;1.02;;;29.30;49.80;;;;;;6273396;28;20056;-75
2021/07/16 13:29:07;;;;;;;0.77;0.70;;;29.30;49.10;;;;;;6273669;28;20126;-76
2021/07/16 13:32:09;;;;;;;1.08;0.98;;;29.50;51.60;;;;;;6273075;28;20184;-76
2021/07/16 13:35:11;;;;;;;1.58;1.20;;;29.70;51.30;;;;;;6272935;28;20124;-76
2021/07/16 13:38:13;;;;;;;2.65;1.27;;;30.10;50.40;;;;;;6272539;28;20101;-76
2021/07/16 13:41:17;;;;;;;1.40;1.30;;;30.30;48.90;;;;;;6273395;28;20079;-76
2021/07/16 13:44:18;;;;;;;1.67;1.00;;;30.60;47.10;;;;;;6274202;28;20461;-75
2021/07/16 13:47:20;;;;;;;1.13;1.02;;;31.00;48.20;;;;;;6273575;28;20095;-75
2021/07/16 13:50:22;;;;;;;1.27;1.10;;;31.10;46.60;;;;;;6273963;28;20053;-75
2021/07/16 13:53:24;;;;;;;4.82;1.17;;;31.10;44.60;;;;;;6273103;28;20537;-75
2021/07/16 13:56:27;;;;;;;1.13;1.02;;;30.70;44.60;;;;;;6272196;28;20118;-75
2021/07/16 13:59:29;;;;;;;2.03;1.88;;;30.30;46.30;;;;;;6272698;28;20052;-75
2021/07/16 14:02:31;;;;;;;1.60;1.13;;;29.80;47.30;;;;;;6272205;28;20168;-75
2021/07/16 14:05:33;;;;;;;4.25;1.55;;;29.30;48.30;;;;;;6272802;28;20053;-75
2021/07/16 14:08:35;;;;;;;1.60;1.45;;;28.90;50.40;;;;;;6272249;28;20052;-75
2021/07/16 14:11:38;;;;;;;3.38;1.45;;;28.70;51.50;;;;;;6278770;22;20709;-79
2021/07/16 14:14:42;;;;;;;2.85;1.65;;;28.70;51.60;;;;;;6248329;28;20132;-76
2021/07/16 14:17:45;;;;;;;3.70;2.15;;;28.60;51.80;;;;;;6248002;28;20051;-77
2021/07/16 14:20:47;;;;;;;1.90;1.70;;;28.70;51.40;;;;;;6248092;28;20049;-77
2021/07/16 14:23:49;;;;;;;2.65;2.03;;;28.80;50.50;;;;;;6247557;28;20129;-77
2021/07/16 14:26:52;;;;;;;1.67;1.40;;;29.10;51.10;;;;;;6250626;28;20072;-77
2021/07/16 14:29:55;;;;;;;1.40;1.30;;;29.20;51.00;;;;;;6258771;28;20077;-76
2021/07/16 14:32:58;;;;;;;1.48;1.33;;;29.30;49.20;;;;;;6246878;28;20392;-76
2021/07/16 14:36:00;;;;;;;4.88;1.60;;;29.60;50.10;;;;;;6247043;28;20045;-76
2021/07/16 14:39:01;;;;;;;2.72;2.33;;;29.70;47.60;;;;;;6247511;28;20120;-77
2021/07/16 14:42:05;;;;;;;4.78;3.45;;;29.60;48.50;;;;;;6247320;28;20132;-77
2021/07/16 14:45:08;;;;;;;3.25;3.00;;;29.40;50.70;;;;;;6248320;28;20135;-77
2021/07/16 14:48:10;;;;;;;3.85;3.13;;;29.50;52.60;;;;;;6247240;28;20124;-77
2021/07/16 14:51:12;;;;;;;5.53;3.15;;;29.50;52.40;;;;;;6248025;28;20063;-77
2021/07/16 14:54:14;;;;;;;7.03;3.85;;;29.60;53.10;;;;;;6248188;28;20052;-77
2021/07/16 14:57:18;;;;;;;7.70;4.78;;;29.70;53.60;;;;;;6247151;28;20050;-76
2021/07/16 15:00:23;;;;;;;6.22;4.43;;;29.50;54.20;;;;;;6247080;28;20049;-77
2021/07/16 15:03:25;;;;;;;7.57;4.40;;;29.40;54.80;;;;;;6247556;28;20049;-78
2021/07/16 15:06:26;;;;;;;5.03;4.35;;;29.10;55.60;;;;;;6248057;28;20076;-77
2021/07/16 15:09:28;;;;;;;8.75;5.03;;;28.90;56.80;;;;;;6248579;28;20127;-77
2021/07/16 15:12:32;;;;;;;7.93;4.53;;;28.60;57.70;;;;;;6247895;28;20120;-78
2021/07/16 15:15:33;;;;;;;6.93;4.47;;;28.50;58.80;;;;;;6247939;28;20056;-77
2021/07/16 15:18:35;;;;;;;4.88;4.47;;;28.40;58.80;;;;;;6247396;28;20068;-77
2021/07/16 15:21:37;;;;;;;3.95;3.55;;;28.10;59.30;;;;;;6247966;28;20119;-77
2021/07/16 15:24:40;;;;;;;4.63;3.75;;;28.00;57.60;;;;;;6247102;28;20069;-77
2021/07/16 15:27:43;;;;;;;4.78;4.30;;;27.70;56.10;;;;;;6246095;28;20115;-77
2021/07/16 15:30:45;;;;;;;8.60;5.20;;;27.50;57.80;;;;;;6263370;28;20149;-76
2021/07/16 15:33:47;;;;;;;9.27;4.90;;;27.30;59.50;;;;;;6271340;28;20047;-76
2021/07/16 15:36:49;;;;;;;5.95;4.47;;;27.20;60.10;;;;;;6247923;28;20050;-76
2021/07/16 15:39:51;;;;;;;6.60;5.55;;;27.30;60.60;;;;;;6260866;28;20049;-76
2021/07/16 15:42:54;;;;;;;7.60;5.38;;;27.30;61.20;;;;;;6270552;28;20213;-76
2021/07/16 15:45:56;;;;;;;9.40;6.72;;;27.40;61.70;;;;;;6270894;28;20520;-77
2021/07/16 15:48:57;;;;;;;6.97;5.88;;;27.40;61.60;;;;;;6246852;28;20050;-78
2021/07/16 15:51:59;;;;;;;7.43;5.70;;;27.40;61.20;;;;;;6247219;28;20037;-78
2021/07/16 15:55:01;;;;;;;8.80;7.03;;;27.30;62.00;;;;;;6257219;28;20131;-78